Time;durP1;ratioP1;P1;durP2;ratioP2;P2;SDS_P1;SDS_P2;PMS_P1;PMS_P2;Temp;Humidity;BMP_temperature;BMP_pressure;BME280_temperature;BME280_humidity;BME280_pressure;Samples;Min_cycle;Max_cycle;Signal;HPM_P1;HPM_P2
2022/12/24 00:01:07;;;;;;;14.30;5.47;;;;;;;;;;5073861;28;20445;-64
2022/12/24 00:03:34;;;;;;;6.80;3.90;;;;;;;;;;5074317;28;20441;-64
2022/12/24 00:06:05;;;;;;;13.50;5.00;;;;;;;;;;5073960;28;20449;-64
2022/12/24 00:08:33;;;;;;;11.83;4.33;;;;;;;;;;5073780;28;20472;-64
2022/12/24 00:11:01;;;;;;;10.53;3.07;;;;;;;;;;5073894;28;20914;-64
2022/12/24 00:13:28;;;;;;;14.80;4.77;;;;;;;;;;5074184;28;20452;-64
2022/12/24 00:15:55;;;;;;;11.50;4.27;;;;;;;;;;5074032;28;20453;-64
2022/12/24 00:18:22;;;;;;;13.30;3.50;;;;;;;;;;5073997;28;20440;-65
2022/12/24 00:20:49;;;;;;;13.00;4.13;;;;;;;;;;5073900;28;20440;-64
2022/12/24 00:23:17;;;;;;;11.53;3.67;;;;;;;;;;5074236;28;20515;-64
2022/12/24 00:25:46;;;;;;;10.37;3.83;;;;;;;;;;5073853;28;20529;-64
2022/12/24 00:28:15;;;;;;;21.07;5.03;;;;;;;;;;5074155;28;20444;-65
2022/12/24 00:30:42;;;;;;;16.77;5.10;;;;;;;;;;5073420;28;20492;-65
2022/12/24 00:33:10;;;;;;;15.90;4.90;;;;;;;;;;5074413;28;20441;-65
2022/12/24 00:35:37;;;;;;;12.13;4.50;;;;;;;;;;5073786;28;20467;-64
2022/12/24 00:38:05;;;;;;;5.37;3.17;;;;;;;;;;5073399;28;20443;-65
2022/12/24 00:40:32;;;;;;;11.37;4.03;;;;;;;;;;5073584;28;20453;-65
2022/12/24 00:43:01;;;;;;;11.23;4.60;;;;;;;;;;5073722;28;20449;-65
2022/12/24 00:45:28;;;;;;;10.43;4.00;;;;;;;;;;5073108;28;20451;-64
2022/12/24 00:47:55;;;;;;;16.90;3.83;;;;;;;;;;5073827;28;20445;-64
2022/12/24 00:50:22;;;;;;;11.40;4.83;;;;;;;;;;5073513;28;20844;-65
2022/12/24 00:52:50;;;;;;;15.50;4.93;;;;;;;;;;5073929;28;20447;-65
2022/12/24 00:55:17;;;;;;;13.43;4.73;;;;;;;;;;5073642;28;20439;-65
2022/12/24 00:57:44;;;;;;;16.87;4.73;;;;;;;;;;5072901;28;20994;-65
2022/12/24 01:00:14;;;;;;;14.17;4.77;;;;;;;;;;5073840;28;20467;-65
2022/12/24 01:02:41;;;;;;;16.60;4.90;;;;;;;;;;5073242;28;20481;-66
2022/12/24 01:05:10;;;;;;;15.10;4.53;;;;;;;;;;5073060;28;20450;-65
2022/12/24 01:07:37;;;;;;;15.63;3.87;;;;;;;;;;5073366;28;20441;-65
2022/12/24 01:10:05;;;;;;;20.63;5.57;;;;;;;;;;5073735;28;20472;-66
2022/12/24 01:12:32;;;;;;;24.63;5.40;;;;;;;;;;5073394;28;20476;-66
2022/12/24 01:14:59;;;;;;;19.40;4.80;;;;;;;;;;5073328;28;20437;-66
2022/12/24 01:17:28;;;;;;;19.97;5.80;;;;;;;;;;5073403;28;20515;-66
2022/12/24 01:19:55;;;;;;;17.97;6.63;;;;;;;;;;5072934;28;20445;-66
2022/12/24 01:22:22;;;;;;;17.63;5.40;;;;;;;;;;5072988;28;20445;-65
2022/12/24 01:24:49;;;;;;;27.37;6.20;;;;;;;;;;5073492;28;20460;-66
2022/12/24 01:27:16;;;;;;;22.27;7.03;;;;;;;;;;5073240;28;20445;-66
2022/12/24 01:29:44;;;;;;;20.83;5.20;;;;;;;;;;5072772;28;20968;-66
2022/12/24 01:32:11;;;;;;;40.07;6.20;;;;;;;;;;5073315;28;20802;-65
2022/12/24 01:34:39;;;;;;;15.70;5.70;;;;;;;;;;5073153;28;20451;-66
2022/12/24 01:37:06;;;;;;;22.70;6.23;;;;;;;;;;5073141;28;20446;-66
2022/12/24 01:39:34;;;;;;;16.20;5.50;;;;;;;;;;5072823;28;20451;-65
2022/12/24 01:44:48;;;;;;;17.10;5.20;;;;;;;;;;5072933;28;20399;-66
2022/12/24 01:47:18;;;;;;;25.13;6.20;;;;;;;;;;5072700;28;20444;-66
2022/12/24 01:49:48;;;;;;;19.37;5.53;;;;;;;;;;5072646;28;20630;-66
2022/12/24 01:52:18;;;;;;;21.67;7.20;;;;;;;;;;5072642;28;20424;-66
2022/12/24 01:54:48;;;;;;;24.07;8.63;;;;;;;;;;5073002;28;20816;-66
2022/12/24 01:57:18;;;;;;;20.53;6.27;;;;;;;;;;5073356;28;20472;-66
2022/12/24 01:59:47;;;;;;;15.57;5.63;;;;;;;;;;5076842;28;20429;-66
2022/12/24 02:02:14;;;;;;;17.83;5.93;;;;;;;;;;5076268;28;20452;-65
2022/12/24 02:04:43;;;;;;;16.57;6.53;;;;;;;;;;5076224;28;20449;-65
2022/12/24 02:07:12;;;;;;;22.07;6.23;;;;;;;;;;5076090;28;20455;-66
2022/12/24 02:09:39;;;;;;;14.07;5.17;;;;;;;;;;5076442;28;20481;-66
2022/12/24 02:12:07;;;;;;;37.70;8.57;;;;;;;;;;5075961;28;20444;-66
2022/12/24 02:14:35;;;;;;;14.43;5.33;;;;;;;;;;5076396;28;20450;-66
2022/12/24 02:17:05;;;;;;;28.93;6.80;;;;;;;;;;5076119;28;20519;-65
2022/12/24 02:19:45;;;;;;;24.43;7.43;;;;;;;;;;5076766;28;20439;-66
2022/12/24 02:22:17;;;;;;;25.23;6.70;;;;;;;;;;5076085;28;20429;-65
2022/12/24 02:25:02;;;;;;;27.73;5.97;;;;;;;;;;5076009;28;20433;-65
2022/12/24 02:27:38;;;;;;;17.33;6.13;;;;;;;;;;5076008;28;20443;-65
2022/12/24 02:30:14;;;;;;;19.33;5.80;;;;;;;;;;5076127;28;20988;-66
2022/12/24 02:32:47;;;;;;;16.93;7.27;;;;;;;;;;5075823;28;20423;-66
2022/12/24 02:35:18;;;;;;;31.40;6.73;;;;;;;;;;5076434;28;20804;-65
2022/12/24 02:37:48;;;;;;;17.03;5.77;;;;;;;;;;5075914;28;20447;-65
2022/12/24 02:40:17;;;;;;;17.27;5.70;;;;;;;;;;5075953;28;20437;-65
2022/12/24 02:42:50;;;;;;;16.33;5.80;;;;;;;;;;5075484;28;20453;-65
2022/12/24 02:45:19;;;;;;;34.33;5.30;;;;;;;;;;5076104;28;20890;-65
2022/12/24 02:47:48;;;;;;;20.67;6.50;;;;;;;;;;5075684;28;20799;-65
2022/12/24 02:50:16;;;;;;;24.63;6.43;;;;;;;;;;5075328;28;20509;-66
2022/12/24 02:52:45;;;;;;;25.47;6.80;;;;;;;;;;5075635;28;20449;-65
2022/12/24 02:55:13;;;;;;;27.33;7.20;;;;;;;;;;5075598;28;20440;-65
2022/12/24 02:57:49;;;;;;;22.47;7.10;;;;;;;;;;5075063;28;20480;-65
2022/12/24 03:00:17;;;;;;;19.93;5.47;;;;;;;;;;5075273;28;20441;-65
2022/12/24 03:02:52;;;;;;;24.97;6.77;;;;;;;;;;5075367;28;20441;-65
2022/12/24 03:05:23;;;;;;;29.33;6.80;;;;;;;;;;5075772;28;20429;-65
2022/12/24 03:07:55;;;;;;;26.77;5.83;;;;;;;;;;5075051;28;20429;-66
2022/12/24 03:10:24;;;;;;;27.87;6.63;;;;;;;;;;5074995;28;20468;-65
2022/12/24 03:12:53;;;;;;;14.33;6.03;;;;;;;;;;5074882;28;20441;-66
2022/12/24 03:15:21;;;;;;;19.07;6.10;;;;;;;;;;5075282;28;20448;-65
2022/12/24 03:17:50;;;;;;;27.83;6.97;;;;;;;;;;5075018;28;20452;-65
2022/12/24 03:20:19;;;;;;;36.87;7.60;;;;;;;;;;5074792;28;20453;-65
2022/12/24 03:22:47;;;;;;;16.80;5.87;;;;;;;;;;5074972;28;20452;-65
2022/12/24 03:25:14;;;;;;;26.57;6.20;;;;;;;;;;5074977;28;20449;-66
2022/12/24 03:27:41;;;;;;;20.67;6.73;;;;;;;;;;5074373;28;20448;-66
2022/12/24 03:30:09;;;;;;;16.10;6.40;;;;;;;;;;5074544;28;20473;-68
2022/12/24 03:32:36;;;;;;;18.07;6.60;;;;;;;;;;5074548;28;20437;-65
2022/12/24 03:35:06;;;;;;;26.07;6.30;;;;;;;;;;5074606;28;20453;-65
2022/12/24 03:37:33;;;;;;;26.20;6.20;;;;;;;;;;5075001;28;20463;-65
2022/12/24 03:40:00;;;;;;;26.43;8.30;;;;;;;;;;5074693;28;20544;-66
2022/12/24 03:42:27;;;;;;;18.07;6.73;;;;;;;;;;5074398;28;20537;-66
2022/12/24 03:44:55;;;;;;;26.70;6.70;;;;;;;;;;5074791;28;20443;-66
2022/12/24 03:47:22;;;;;;;25.67;8.50;;;;;;;;;;5074498;28;20442;-66
2022/12/24 03:49:49;;;;;;;19.43;5.03;;;;;;;;;;5074165;28;20472;-66
2022/12/24 03:52:17;;;;;;;19.10;5.93;;;;;;;;;;5073916;28;20960;-66
2022/12/24 03:54:45;;;;;;;23.87;6.07;;;;;;;;;;5074441;28;20444;-66
2022/12/24 03:57:12;;;;;;;23.47;5.90;;;;;;;;;;5074318;28;20436;-66
2022/12/24 03:59:39;;;;;;;21.67;5.77;;;;;;;;;;5074825;28;20519;-66
2022/12/24 04:02:06;;;;;;;25.90;7.07;;;;;;;;;;5073948;28;20923;-66
2022/12/24 04:04:35;;;;;;;27.17;8.27;;;;;;;;;;5074205;28;20440;-66
2022/12/24 04:07:03;;;;;;;16.73;6.40;;;;;;;;;;5073757;28;20475;-66
2022/12/24 04:09:31;;;;;;;35.77;7.00;;;;;;;;;;5073608;28;20535;-66
2022/12/24 04:11:58;;;;;;;17.87;5.97;;;;;;;;;;5074050;28;20445;-66
2022/12/24 04:14:25;;;;;;;16.67;5.63;;;;;;;;;;5074525;28;20442;-66
2022/12/24 04:16:53;;;;;;;32.73;7.57;;;;;;;;;;5073780;28;20440;-66
2022/12/24 04:19:20;;;;;;;25.93;7.63;;;;;;;;;;5073807;28;20464;-66
2022/12/24 04:21:47;;;;;;;20.40;6.30;;;;;;;;;;5073676;28;20446;-66
2022/12/24 04:24:14;;;;;;;22.43;6.90;;;;;;;;;;5073895;28;20447;-66
2022/12/24 04:26:43;;;;;;;28.87;7.07;;;;;;;;;;5073474;28;20442;-67
2022/12/24 04:29:10;;;;;;;29.07;6.90;;;;;;;;;;5073900;28;20446;-67
2022/12/24 04:31:37;;;;;;;22.70;5.90;;;;;;;;;;5073669;28;20528;-69
2022/12/24 04:34:04;;;;;;;31.80;7.40;;;;;;;;;;5073568;28;20441;-67
2022/12/24 04:36:32;;;;;;;25.60;6.50;;;;;;;;;;5073604;28;20455;-67
2022/12/24 04:38:59;;;;;;;22.80;5.80;;;;;;;;;;5073350;28;20436;-66
2022/12/24 04:41:26;;;;;;;27.73;7.80;;;;;;;;;;5074110;28;20448;-66
2022/12/24 04:43:55;;;;;;;18.13;6.40;;;;;;;;;;5073505;28;20440;-66
2022/12/24 04:46:24;;;;;;;14.30;5.10;;;;;;;;;;5073302;28;20450;-67
2022/12/24 04:48:52;;;;;;;27.80;7.07;;;;;;;;;;5073415;28;20445;-66
2022/12/24 04:51:19;;;;;;;28.10;8.07;;;;;;;;;;5072896;28;20475;-66
2022/12/24 04:53:47;;;;;;;28.00;6.40;;;;;;;;;;5071856;28;20793;-68
2022/12/24 04:56:15;;;;;;;18.23;6.00;;;;;;;;;;5072120;28;20466;-66
2022/12/24 04:58:42;;;;;;;30.17;8.03;;;;;;;;;;5072986;28;20476;-66
2022/12/24 05:01:13;;;;;;;21.10;6.70;;;;;;;;;;5073642;28;20449;-67
2022/12/24 05:03:40;;;;;;;31.07;7.47;;;;;;;;;;5072771;28;20433;-66
2022/12/24 05:06:09;;;;;;;19.47;8.00;;;;;;;;;;5072932;28;20446;-66
2022/12/24 05:08:36;;;;;;;26.37;7.53;;;;;;;;;;5072793;28;20937;-67
2022/12/24 05:11:03;;;;;;;19.83;8.60;;;;;;;;;;5072913;28;20830;-66
2022/12/24 05:13:31;;;;;;;25.73;8.70;;;;;;;;;;5072956;28;20547;-66
2022/12/24 05:15:58;;;;;;;33.97;7.97;;;;;;;;;;5072593;28;20439;-66
2022/12/24 05:18:27;;;;;;;20.67;6.60;;;;;;;;;;5072819;28;20436;-66
2022/12/24 05:20:54;;;;;;;36.90;8.80;;;;;;;;;;5073434;28;20444;-66
2022/12/24 05:26:24;;;;;;;28.53;8.00;;;;;;;;;;5092733;28;20418;-66
2022/12/24 05:28:52;;;;;;;35.07;9.17;;;;;;;;;;5092513;28;20443;-66
2022/12/24 05:31:19;;;;;;;23.77;8.30;;;;;;;;;;5093528;28;20482;-66
2022/12/24 05:33:48;;;;;;;25.67;8.40;;;;;;;;;;5096801;28;20440;-67
2022/12/24 05:36:15;;;;;;;21.53;7.10;;;;;;;;;;5097221;28;20534;-67
2022/12/24 05:38:43;;;;;;;21.67;8.80;;;;;;;;;;5097229;28;20466;-67
2022/12/24 05:41:10;;;;;;;26.97;7.73;;;;;;;;;;5096770;28;20539;-66
2022/12/24 05:43:38;;;;;;;22.10;7.80;;;;;;;;;;5096655;28;20442;-67
2022/12/24 05:46:06;;;;;;;37.73;9.83;;;;;;;;;;5097202;28;20446;-66
2022/12/24 05:48:33;;;;;;;32.63;8.77;;;;;;;;;;5096596;28;20444;-67
2022/12/24 05:51:04;;;;;;;31.07;8.77;;;;;;;;;;5096749;28;20479;-67
2022/12/24 05:53:31;;;;;;;19.43;7.87;;;;;;;;;;5096618;28;20447;-66
2022/12/24 05:56:03;;;;;;;29.27;9.70;;;;;;;;;;5096534;28;20445;-66
2022/12/24 05:58:30;;;;;;;34.70;9.60;;;;;;;;;;5096299;28;20981;-66
2022/12/24 06:00:57;;;;;;;24.63;9.57;;;;;;;;;;5096581;28;20514;-66
2022/12/24 06:03:24;;;;;;;28.17;9.63;;;;;;;;;;5096529;28;20443;-66
2022/12/24 06:05:58;;;;;;;23.00;8.10;;;;;;;;;;5096664;28;20483;-66
2022/12/24 06:08:27;;;;;;;40.07;8.63;;;;;;;;;;5095962;28;20434;-66
2022/12/24 06:10:55;;;;;;;21.30;8.30;;;;;;;;;;5096227;28;20475;-65
2022/12/24 06:13:22;;;;;;;34.03;10.00;;;;;;;;;;5096251;28;20443;-65
2022/12/24 06:15:50;;;;;;;25.60;9.43;;;;;;;;;;5096232;28;20432;-65
2022/12/24 06:18:17;;;;;;;27.10;9.13;;;;;;;;;;5095831;28;20933;-65
2022/12/24 06:20:44;;;;;;;38.80;9.70;;;;;;;;;;5096208;28;20455;-66
2022/12/24 06:23:11;;;;;;;37.37;11.00;;;;;;;;;;5095853;28;20446;-65
2022/12/24 06:25:40;;;;;;;32.63;10.37;;;;;;;;;;5096279;28;20435;-65
2022/12/24 06:28:07;;;;;;;23.20;8.23;;;;;;;;;;5096163;28;20454;-65
2022/12/24 06:30:34;;;;;;;29.60;9.27;;;;;;;;;;5095439;28;20450;-65
2022/12/24 06:33:02;;;;;;;27.83;8.77;;;;;;;;;;5095609;28;20440;-65
2022/12/24 06:35:29;;;;;;;27.17;9.03;;;;;;;;;;5095755;28;20449;-65
2022/12/24 06:37:56;;;;;;;24.50;10.30;;;;;;;;;;5095589;28;20451;-65
2022/12/24 06:40:23;;;;;;;35.20;8.83;;;;;;;;;;5095361;28;20440;-66
2022/12/24 06:42:52;;;;;;;37.27;10.67;;;;;;;;;;5095021;28;20804;-65
2022/12/24 06:45:19;;;;;;;30.20;9.70;;;;;;;;;;5095774;28;20451;-65
2022/12/24 06:47:46;;;;;;;32.83;11.37;;;;;;;;;;5095945;28;20435;-66
2022/12/24 06:50:13;;;;;;;39.37;8.63;;;;;;;;;;5095393;28;20437;-65
2022/12/24 06:52:41;;;;;;;31.30;8.20;;;;;;;;;;5095800;28;20498;-65
2022/12/24 06:55:08;;;;;;;36.43;10.60;;;;;;;;;;5095811;28;20452;-65
2022/12/24 06:57:35;;;;;;;38.80;9.57;;;;;;;;;;5095634;28;20468;-65
2022/12/24 07:00:04;;;;;;;29.23;8.03;;;;;;;;;;5095549;28;20451;-65
2022/12/24 07:02:32;;;;;;;36.47;9.33;;;;;;;;;;5095233;28;20444;-66
2022/12/24 07:04:59;;;;;;;25.40;8.50;;;;;;;;;;5095482;28;20447;-65
2022/12/24 07:07:26;;;;;;;34.73;9.67;;;;;;;;;;5095600;28;20450;-66
2022/12/24 07:09:53;;;;;;;34.77;9.93;;;;;;;;;;5095565;28;20542;-66
2022/12/24 07:12:21;;;;;;;38.50;11.23;;;;;;;;;;5095129;28;20472;-66
2022/12/24 07:14:48;;;;;;;29.00;8.80;;;;;;;;;;5095168;28;20933;-66
2022/12/24 07:17:17;;;;;;;28.50;9.60;;;;;;;;;;5095385;28;20963;-66
2022/12/24 07:19:44;;;;;;;38.40;11.17;;;;;;;;;;5094853;28;20458;-66
2022/12/24 07:22:11;;;;;;;44.47;12.30;;;;;;;;;;5095183;28;20539;-66
2022/12/24 07:24:38;;;;;;;38.70;9.77;;;;;;;;;;5095394;28;20450;-66
2022/12/24 07:27:05;;;;;;;27.80;8.73;;;;;;;;;;5094680;28;20522;-67
2022/12/24 07:29:33;;;;;;;27.93;8.20;;;;;;;;;;5094681;28;20440;-67
2022/12/24 07:32:00;;;;;;;28.70;9.40;;;;;;;;;;5095080;28;20481;-66
2022/12/24 07:34:28;;;;;;;32.90;10.30;;;;;;;;;;5095018;28;20446;-66
2022/12/24 07:36:56;;;;;;;36.07;9.83;;;;;;;;;;5095244;28;20446;-66
2022/12/24 07:39:23;;;;;;;34.03;9.10;;;;;;;;;;5094655;28;20450;-65
2022/12/24 07:41:50;;;;;;;29.60;8.43;;;;;;;;;;5094490;28;20449;-66
2022/12/24 07:44:17;;;;;;;49.47;11.13;;;;;;;;;;5094607;28;20451;-65
2022/12/24 07:46:44;;;;;;;27.77;9.53;;;;;;;;;;5094443;28;20428;-65
2022/12/24 07:49:12;;;;;;;32.63;10.03;;;;;;;;;;5094930;28;20444;-65
2022/12/24 07:51:40;;;;;;;33.85;10.93;;;;;;;;;;5094221;28;20475;-65
2022/12/24 07:54:08;;;;;;;34.37;9.33;;;;;;;;;;5094787;28;20554;-65
2022/12/24 07:56:35;;;;;;;37.37;10.33;;;;;;;;;;5094361;28;20439;-65
2022/12/24 07:59:02;;;;;;;26.23;8.67;;;;;;;;;;5094351;28;20479;-65
2022/12/24 08:01:29;;;;;;;40.40;8.90;;;;;;;;;;5094617;28;20794;-65
2022/12/24 08:03:56;;;;;;;29.00;10.13;;;;;;;;;;5094406;28;20441;-65
2022/12/24 08:06:24;;;;;;;26.13;8.80;;;;;;;;;;5094114;28;20452;-66
2022/12/24 08:08:52;;;;;;;30.13;9.40;;;;;;;;;;5094103;28;20438;-66
2022/12/24 08:11:19;;;;;;;32.73;10.77;;;;;;;;;;5094153;28;20485;-65
2022/12/24 08:13:46;;;;;;;20.30;10.00;;;;;;;;;;5094435;28;20443;-66
2022/12/24 08:16:14;;;;;;;20.63;8.07;;;;;;;;;;5074103;28;20441;-65
2022/12/24 08:18:41;;;;;;;31.83;9.17;;;;;;;;;;5074052;28;20543;-65
2022/12/24 08:21:08;;;;;;;24.77;7.70;;;;;;;;;;5073776;28;20445;-65
2022/12/24 08:23:35;;;;;;;31.73;9.87;;;;;;;;;;5074116;28;20529;-65
2022/12/24 08:26:07;;;;;;;22.33;6.87;;;;;;;;;;5073518;28;20441;-65
2022/12/24 08:28:34;;;;;;;36.90;11.03;;;;;;;;;;5073383;28;20459;-65
2022/12/24 08:31:01;;;;;;;23.73;7.60;;;;;;;;;;5074133;28;20440;-65
2022/12/24 08:33:28;;;;;;;25.60;8.17;;;;;;;;;;5073520;28;20942;-64
2022/12/24 08:35:56;;;;;;;21.30;8.20;;;;;;;;;;5073293;28;20933;-65
2022/12/24 08:38:23;;;;;;;19.90;8.60;;;;;;;;;;5073633;28;20795;-65
2022/12/24 08:40:53;;;;;;;21.37;9.37;;;;;;;;;;5073640;28;20436;-65
2022/12/24 08:43:22;;;;;;;27.13;9.03;;;;;;;;;;5073623;28;20792;-65
2022/12/24 08:45:50;;;;;;;32.80;9.00;;;;;;;;;;5089227;28;20932;-65
2022/12/24 08:48:18;;;;;;;23.90;8.13;;;;;;;;;;5093646;28;20440;-65
2022/12/24 08:50:45;;;;;;;35.53;9.87;;;;;;;;;;5093377;28;20454;-65
2022/12/24 08:53:13;;;;;;;20.27;6.90;;;;;;;;;;5093711;28;20629;-65
2022/12/24 08:55:41;;;;;;;27.30;8.47;;;;;;;;;;5093537;28;20527;-64
2022/12/24 08:58:08;;;;;;;24.67;8.10;;;;;;;;;;5093687;28;20483;-65
2022/12/24 09:00:37;;;;;;;31.60;8.20;;;;;;;;;;5093174;28;20475;-65
2022/12/24 09:03:04;;;;;;;27.37;8.40;;;;;;;;;;5093565;28;20444;-65
2022/12/24 09:05:31;;;;;;;19.00;8.20;;;;;;;;;;5093133;28;21055;-65
2022/12/24 09:07:59;;;;;;;21.97;9.13;;;;;;;;;;5093255;28;20782;-65
2022/12/24 09:10:26;;;;;;;26.53;9.03;;;;;;;;;;5093088;28;20476;-65
2022/12/24 09:12:53;;;;;;;27.03;8.43;;;;;;;;;;5093109;28;20568;-65
2022/12/24 09:15:20;;;;;;;24.77;9.37;;;;;;;;;;5093391;28;20446;-65
2022/12/24 09:17:49;;;;;;;25.07;9.10;;;;;;;;;;5093043;28;20934;-65
2022/12/24 09:20:16;;;;;;;15.07;7.27;;;;;;;;;;5093412;28;20436;-65
2022/12/24 09:22:43;;;;;;;26.43;8.30;;;;;;;;;;5093466;28;20445;-65
2022/12/24 09:25:10;;;;;;;23.57;7.90;;;;;;;;;;5093078;28;20448;-65
2022/12/24 09:27:38;;;;;;;14.93;6.10;;;;;;;;;;5092826;28;20444;-65
2022/12/24 09:30:05;;;;;;;20.60;8.00;;;;;;;;;;5093386;28;20441;-65
2022/12/24 09:32:33;;;;;;;29.23;8.70;;;;;;;;;;5093062;28;20481;-65
2022/12/24 09:35:01;;;;;;;20.00;7.03;;;;;;;;;;5092989;28;20436;-65
2022/12/24 09:37:29;;;;;;;23.43;7.20;;;;;;;;;;5093454;28;20534;-65
2022/12/24 09:39:56;;;;;;;20.50;7.20;;;;;;;;;;5093094;28;20542;-65
2022/12/24 09:42:27;;;;;;;20.07;8.87;;;;;;;;;;5093066;28;20803;-65
2022/12/24 09:44:58;;;;;;;26.10;7.53;;;;;;;;;;5093474;28;20437;-65
2022/12/24 09:47:27;;;;;;;32.93;6.83;;;;;;;;;;5093544;28;20470;-65
2022/12/24 09:49:55;;;;;;;24.77;7.20;;;;;;;;;;5093075;28;20442;-65
2022/12/24 09:52:29;;;;;;;24.97;7.30;;;;;;;;;;5092438;28;20467;-65
2022/12/24 09:54:59;;;;;;;21.03;7.50;;;;;;;;;;5092951;28;20428;-65
2022/12/24 09:57:29;;;;;;;13.37;5.90;;;;;;;;;;5092671;28;20576;-65
2022/12/24 09:59:56;;;;;;;20.60;6.80;;;;;;;;;;5093147;28;20450;-65
2022/12/24 10:02:23;;;;;;;17.17;7.97;;;;;;;;;;5092570;28;20448;-65
2022/12/24 10:04:51;;;;;;;24.50;6.67;;;;;;;;;;5093365;28;20446;-65
2022/12/24 10:07:29;;;;;;;28.97;7.10;;;;;;;;;;5093191;28;20436;-65
2022/12/24 10:10:02;;;;;;;21.60;7.27;;;;;;;;;;5092980;28;20460;-65
2022/12/24 10:12:34;;;;;;;23.30;6.90;;;;;;;;;;5092341;28;21015;-65
2022/12/24 10:15:03;;;;;;;29.60;7.40;;;;;;;;;;5092733;28;20443;-65
2022/12/24 10:17:36;;;;;;;22.10;8.67;;;;;;;;;;5092449;28;20444;-65
2022/12/24 10:20:12;;;;;;;25.67;6.03;;;;;;;;;;5097278;28;20433;-65
2022/12/24 10:22:46;;;;;;;18.87;7.20;;;;;;;;;;5096801;28;20432;-66
2022/12/24 10:25:18;;;;;;;22.10;7.47;;;;;;;;;;5096307;28;20429;-65
2022/12/24 10:27:46;;;;;;;15.47;7.33;;;;;;;;;;5096646;28;20451;-65
2022/12/24 10:30:15;;;;;;;23.10;7.30;;;;;;;;;;5096628;28;20544;-65
2022/12/24 10:32:42;;;;;;;11.73;6.60;;;;;;;;;;5096149;28;20485;-66
2022/12/24 10:35:19;;;;;;;30.40;6.80;;;;;;;;;;5096422;28;20450;-66
2022/12/24 10:37:49;;;;;;;16.43;6.67;;;;;;;;;;5096317;28;20429;-66
2022/12/24 10:40:21;;;;;;;20.13;9.30;;;;;;;;;;5096390;28;20424;-66
2022/12/24 10:42:49;;;;;;;17.63;7.90;;;;;;;;;;5095620;28;20438;-66
2022/12/24 10:45:17;;;;;;;24.83;7.33;;;;;;;;;;5095705;28;20459;-66
2022/12/24 10:47:46;;;;;;;23.03;8.30;;;;;;;;;;5095879;28;20447;-66
2022/12/24 10:50:17;;;;;;;22.00;8.50;;;;;;;;;;5095660;28;20440;-66
2022/12/24 10:52:45;;;;;;;29.73;8.43;;;;;;;;;;5095448;28;20476;-66
2022/12/24 10:55:23;;;;;;;22.27;8.30;;;;;;;;;;5095696;28;20436;-66
2022/12/24 10:57:58;;;;;;;22.17;8.93;;;;;;;;;;5095769;28;20467;-66
2022/12/24 11:00:26;;;;;;;22.20;8.10;;;;;;;;;;5096153;28;20431;-66
2022/12/24 11:03:06;;;;;;;32.50;8.77;;;;;;;;;;5095810;28;20449;-66
2022/12/24 11:05:40;;;;;;;19.10;8.57;;;;;;;;;;5096343;28;20907;-66
2022/12/24 11:08:15;;;;;;;26.37;9.80;;;;;;;;;;5095519;28;20430;-66
2022/12/24 11:10:45;;;;;;;14.07;6.63;;;;;;;;;;5095288;28;20420;-66
2022/12/24 11:13:23;;;;;;;21.90;6.97;;;;;;;;;;5095567;28;21039;-66
2022/12/24 11:15:52;;;;;;;23.03;7.43;;;;;;;;;;5095905;28;20425;-66
2022/12/24 11:18:19;;;;;;;16.03;7.23;;;;;;;;;;5095386;28;20919;-66
2022/12/24 11:20:52;;;;;;;31.20;8.00;;;;;;;;;;5095082;28;20451;-66
2022/12/24 11:23:20;;;;;;;33.23;7.33;;;;;;;;;;5095424;28;20434;-67
2022/12/24 11:25:50;;;;;;;30.43;7.57;;;;;;;;;;5095395;28;20463;-66
2022/12/24 11:28:21;;;;;;;16.83;7.23;;;;;;;;;;5094858;28;20452;-67
2022/12/24 11:30:57;;;;;;;17.90;7.43;;;;;;;;;;5095126;28;20433;-66
2022/12/24 11:33:24;;;;;;;25.73;8.90;;;;;;;;;;5095145;28;20467;-66
2022/12/24 11:36:02;;;;;;;23.40;8.57;;;;;;;;;;5095886;28;20447;-67
2022/12/24 11:38:30;;;;;;;20.83;8.80;;;;;;;;;;5095294;28;20452;-66
2022/12/24 11:41:09;;;;;;;17.30;8.30;;;;;;;;;;5094612;28;20437;-66
2022/12/24 11:43:44;;;;;;;15.63;6.83;;;;;;;;;;5094598;28;20436;-66
2022/12/24 11:46:29;;;;;;;23.43;7.23;;;;;;;;;;5094729;28;20986;-66
2022/12/24 11:49:06;;;;;;;21.47;7.53;;;;;;;;;;5084702;28;20461;-66
2022/12/24 11:51:33;;;;;;;25.33;9.00;;;;;;;;;;5094519;28;20431;-66
2022/12/24 11:54:05;;;;;;;26.77;9.20;;;;;;;;;;5094716;28;20567;-65
2022/12/24 11:56:40;;;;;;;25.70;8.40;;;;;;;;;;5094673;28;20516;-66
2022/12/24 11:59:16;;;;;;;15.63;7.30;;;;;;;;;;5094095;28;20476;-66
2022/12/24 12:01:48;;;;;;;15.80;6.10;;;;;;;;;;5080176;28;20933;-66
2022/12/24 12:04:16;;;;;;;22.87;6.90;;;;;;;;;;5073946;28;20447;-66
2022/12/24 12:06:46;;;;;;;17.50;7.27;;;;;;;;;;5073646;28;20438;-65
2022/12/24 12:09:14;;;;;;;22.20;7.73;;;;;;;;;;5073851;28;20453;-66
2022/12/24 12:11:44;;;;;;;14.00;6.70;;;;;;;;;;5055613;23;20487;-65
2022/12/24 12:14:15;;;;;;;26.43;7.27;;;;;;;;;;5033788;28;20488;-66
2022/12/24 12:17:02;;;;;;;16.67;6.80;;;;;;;;;;5033936;28;20473;-66
2022/12/24 12:19:33;;;;;;;13.87;6.70;;;;;;;;;;5033987;28;20432;-66
2022/12/24 12:22:01;;;;;;;21.57;7.63;;;;;;;;;;5034063;28;20436;-66
2022/12/24 12:24:29;;;;;;;19.27;7.47;;;;;;;;;;5033579;28;20541;-66
2022/12/24 12:27:03;;;;;;;23.77;7.40;;;;;;;;;;5033934;28;20443;-66
2022/12/24 12:29:32;;;;;;;23.57;7.80;;;;;;;;;;5034171;28;20778;-66
2022/12/24 12:32:03;;;;;;;22.67;7.87;;;;;;;;;;5033638;28;20450;-66
2022/12/24 12:34:33;;;;;;;23.50;7.77;;;;;;;;;;5033615;28;20894;-66
2022/12/24 12:37:03;;;;;;;15.73;6.37;;;;;;;;;;5033775;28;20431;-66
2022/12/24 12:39:31;;;;;;;26.93;7.93;;;;;;;;;;5033953;28;20443;-66
2022/12/24 12:42:02;;;;;;;22.47;7.40;;;;;;;;;;5030909;28;20446;-66
2022/12/24 12:44:40;;;;;;;20.70;6.53;;;;;;;;;;5031391;28;20913;-66
2022/12/24 12:47:17;;;;;;;20.80;7.00;;;;;;;;;;5016952;28;20546;-66
2022/12/24 12:49:51;;;;;;;24.47;8.10;;;;;;;;;;5045158;28;20431;-66
2022/12/24 12:52:22;;;;;;;24.83;8.33;;;;;;;;;;5034161;28;20441;-67
2022/12/24 12:54:59;;;;;;;20.23;7.13;;;;;;;;;;5033551;28;20444;-66
2022/12/24 12:57:29;;;;;;;24.27;7.67;;;;;;;;;;5033661;28;20435;-66
2022/12/24 12:59:58;;;;;;;22.30;7.07;;;;;;;;;;5033367;28;20431;-66
2022/12/24 13:02:37;;;;;;;16.07;7.83;;;;;;;;;;5049609;28;20469;-66
2022/12/24 13:05:26;;;;;;;22.10;6.80;;;;;;;;;;5053363;28;20451;-65
2022/12/24 13:08:15;;;;;;;21.77;7.10;;;;;;;;;;5053282;28;20435;-66
2022/12/24 13:10:50;;;;;;;21.17;7.00;;;;;;;;;;5053155;28;20481;-66
2022/12/24 13:13:29;;;;;;;18.60;7.03;;;;;;;;;;5053259;28;20470;-66
2022/12/24 13:16:01;;;;;;;21.93;7.53;;;;;;;;;;5052789;28;20426;-66
2022/12/24 13:18:43;;;;;;;20.93;7.93;;;;;;;;;;5037401;28;20446;-66
2022/12/24 13:21:16;;;;;;;26.73;7.70;;;;;;;;;;5032928;28;20925;-66
2022/12/24 13:23:43;;;;;;;20.23;8.07;;;;;;;;;;5033189;28;20437;-66
2022/12/24 13:26:12;;;;;;;19.53;6.83;;;;;;;;;;5033235;28;20466;-66
2022/12/24 13:28:41;;;;;;;12.30;5.87;;;;;;;;;;5033497;28;20444;-66
2022/12/24 13:31:30;;;;;;;18.80;7.10;;;;;;;;;;5033134;28;20443;-66
2022/12/24 13:34:04;;;;;;;25.23;7.30;;;;;;;;;;5033270;28;20472;-66
2022/12/24 13:36:58;;;;;;;17.30;6.73;;;;;;;;;;5033188;28;20461;-66
2022/12/24 13:39:25;;;;;;;23.03;8.20;;;;;;;;;;5032714;28;20454;-66
2022/12/24 13:41:52;;;;;;;17.20;5.80;;;;;;;;;;5032580;28;20537;-66
2022/12/24 13:44:32;;;;;;;22.13;6.70;;;;;;;;;;5032720;28;20454;-66
2022/12/24 13:47:02;;;;;;;27.53;7.60;;;;;;;;;;5032696;28;20438;-66
2022/12/24 13:49:34;;;;;;;17.77;6.37;;;;;;;;;;5033045;28;20443;-66
2022/12/24 13:52:22;;;;;;;20.30;6.60;;;;;;;;;;5033572;28;20466;-66
2022/12/24 13:55:16;;;;;;;19.77;6.60;;;;;;;;;;5033661;28;20484;-66
2022/12/24 13:57:47;;;;;;;20.33;6.70;;;;;;;;;;5012543;28;20457;-66
2022/12/24 14:00:30;;;;;;;13.63;6.07;;;;;;;;;;5036873;28;20813;-66
2022/12/24 14:02:59;;;;;;;14.73;6.13;;;;;;;;;;5036530;28;20438;-66
2022/12/24 14:05:31;;;;;;;23.47;6.60;;;;;;;;;;5036559;28;20932;-66
2022/12/24 14:07:59;;;;;;;22.07;7.00;;;;;;;;;;5037174;28;20508;-66
2022/12/24 14:10:27;;;;;;;16.87;6.90;;;;;;;;;;5036500;28;20474;-66
2022/12/24 14:12:55;;;;;;;21.63;7.30;;;;;;;;;;5036436;28;20436;-66
2022/12/24 14:15:40;;;;;;;23.40;8.13;;;;;;;;;;5036100;28;20451;-66
2022/12/24 14:18:09;;;;;;;22.80;6.67;;;;;;;;;;5036019;28;20447;-66
2022/12/24 14:20:37;;;;;;;16.93;8.13;;;;;;;;;;5036310;28;20444;-66
2022/12/24 14:23:05;;;;;;;17.33;7.30;;;;;;;;;;5036032;28;20458;-66
2022/12/24 14:25:33;;;;;;;14.07;6.37;;;;;;;;;;5035901;28;20440;-66
2022/12/24 14:28:04;;;;;;;21.03;7.20;;;;;;;;;;5035965;28;20516;-66
2022/12/24 14:30:31;;;;;;;22.37;7.97;;;;;;;;;;5035883;28;20962;-66
2022/12/24 14:32:59;;;;;;;26.33;8.20;;;;;;;;;;5035769;28;20440;-66
2022/12/24 14:35:29;;;;;;;20.53;7.53;;;;;;;;;;5035694;28;20444;-66
2022/12/24 14:37:59;;;;;;;22.23;7.43;;;;;;;;;;5035857;28;20432;-66
2022/12/24 14:40:28;;;;;;;25.23;8.50;;;;;;;;;;5036121;28;20453;-66
2022/12/24 14:42:59;;;;;;;25.97;9.50;;;;;;;;;;5036159;28;20471;-66
2022/12/24 14:45:30;;;;;;;20.73;8.07;;;;;;;;;;5036040;28;20439;-66
2022/12/24 14:48:01;;;;;;;25.50;7.77;;;;;;;;;;5035478;28;20447;-66